createdAt,value
2023-01-13T00:00:31.441Z,1.08
2023-01-13T00:02:59.511Z,1.48
2023-01-13T00:05:28.380Z,1.42
2023-01-13T00:07:56.342Z,1.42
2023-01-13T00:10:25.759Z,1.38
2023-01-13T00:12:54.056Z,0.80
2023-01-13T00:15:22.101Z,1.30
2023-01-13T00:17:50.070Z,1.05
2023-01-13T00:20:18.653Z,1.33
2023-01-13T00:22:46.677Z,1.85
2023-01-13T00:25:14.736Z,1.40
2023-01-13T00:27:44.096Z,1.73
2023-01-13T00:30:12.940Z,1.38
2023-01-13T00:32:40.898Z,1.60
2023-01-13T00:35:09.946Z,1.38
2023-01-13T00:37:38.706Z,1.80
2023-01-13T00:40:07.762Z,1.45
2023-01-13T00:42:53.161Z,1.67
2023-01-13T00:45:22.778Z,1.67
2023-01-13T00:47:50.729Z,2.00
2023-01-13T00:50:18.775Z,1.85
2023-01-13T00:52:46.680Z,1.70
2023-01-13T00:55:14.683Z,1.60
2023-01-13T00:57:42.737Z,1.80
2023-01-13T01:00:12.075Z,2.10
2023-01-13T01:02:41.573Z,2.22
2023-01-13T01:05:10.868Z,1.83
2023-01-13T01:07:38.940Z,2.17
2023-01-13T01:10:07.789Z,1.50
2023-01-13T01:12:35.985Z,2.05
2023-01-13T01:15:06.097Z,1.83
2023-01-13T01:17:34.099Z,1.98
2023-01-13T01:20:03.411Z,1.77
2023-01-13T01:22:31.391Z,1.73
2023-01-13T01:24:59.761Z,1.88
2023-01-13T01:27:27.819Z,2.15
2023-01-13T01:29:55.821Z,1.85
2023-01-13T01:32:23.819Z,2.40
2023-01-13T01:34:52.301Z,1.70
2023-01-13T01:37:21.574Z,2.65
2023-01-13T01:39:49.615Z,2.20
2023-01-13T01:42:43.952Z,2.22
2023-01-13T01:45:19.293Z,2.28
2023-01-13T01:47:51.415Z,2.30
2023-01-13T01:50:20.656Z,2.70
2023-01-13T01:52:55.425Z,2.20
2023-01-13T01:55:27.079Z,1.95
2023-01-13T01:57:59.689Z,2.70
2023-01-13T02:00:31.069Z,2.17
2023-01-13T02:03:01.405Z,2.28
2023-01-13T02:05:29.432Z,2.25
2023-01-13T02:08:00.741Z,2.25
2023-01-13T02:10:32.202Z,2.33
2023-01-13T02:13:06.022Z,2.33
2023-01-13T02:15:40.242Z,2.00
2023-01-13T02:18:25.828Z,2.30
2023-01-13T02:21:09.295Z,2.60
2023-01-13T02:24:40.302Z,2.08
2023-01-13T02:27:47.581Z,2.35
2023-01-13T02:30:41.501Z,2.20
2023-01-13T02:33:26.258Z,2.30
2023-01-13T02:36:02.676Z,2.03
2023-01-13T02:38:38.258Z,2.05
2023-01-13T02:41:23.764Z,2.67
2023-01-13T02:44:08.598Z,2.28
2023-01-13T02:46:46.825Z,2.15
2023-01-13T02:49:22.475Z,1.90
2023-01-13T02:51:53.392Z,1.77
2023-01-13T02:54:25.532Z,2.45
2023-01-13T02:56:55.874Z,2.20
2023-01-13T02:59:26.600Z,2.85
2023-01-13T03:01:57.644Z,2.65
2023-01-13T03:04:48.675Z,2.22
2023-01-13T03:07:34.182Z,2.03
2023-01-13T03:10:11.478Z,1.98
2023-01-13T03:12:51.826Z,2.90
2023-01-13T03:15:26.208Z,2.03
2023-01-13T03:18:04.743Z,2.58
2023-01-13T03:20:38.527Z,2.10
2023-01-13T03:23:13.641Z,2.30
2023-01-13T03:25:48.281Z,2.80
2023-01-13T03:28:22.033Z,2.05
2023-01-13T03:30:54.777Z,2.75
2023-01-13T03:33:30.206Z,2.65
2023-01-13T03:36:03.115Z,2.33
2023-01-13T03:38:33.827Z,2.58
2023-01-13T03:41:07.088Z,1.92
2023-01-13T03:44:00.062Z,2.33
2023-01-13T03:46:37.236Z,2.38
2023-01-13T03:49:09.356Z,1.98
2023-01-13T03:51:40.788Z,1.90
2023-01-13T03:54:12.927Z,2.00
2023-01-13T03:56:45.542Z,2.28
2023-01-13T03:59:19.841Z,2.30
2023-01-13T04:01:53.836Z,2.80
2023-01-13T04:04:28.056Z,2.60
2023-01-13T04:07:03.288Z,2.50
2023-01-13T04:09:40.371Z,2.28
2023-01-13T04:12:15.033Z,2.05
2023-01-13T04:14:47.287Z,2.53
2023-01-13T04:19:45.998Z,2.28
2023-01-13T04:22:14.010Z,2.30
2023-01-13T04:24:41.993Z,2.55
2023-01-13T04:27:09.963Z,1.83
2023-01-13T04:29:37.958Z,2.40
2023-01-13T04:32:05.928Z,2.40
2023-01-13T04:34:33.963Z,2.75
2023-01-13T04:37:03.299Z,2.45
2023-01-13T04:39:31.319Z,2.45
2023-01-13T04:41:59.395Z,2.72
2023-01-13T04:44:27.781Z,2.22
2023-01-13T04:46:55.757Z,2.45
2023-01-13T04:49:23.838Z,1.95
2023-01-13T04:51:51.845Z,2.28
2023-01-13T04:54:21.297Z,2.00
2023-01-13T04:56:49.368Z,2.35
2023-01-13T04:59:17.263Z,2.08
2023-01-13T05:01:47.842Z,2.00
2023-01-13T05:04:17.097Z,2.17
2023-01-13T05:06:45.440Z,1.95
2023-01-13T05:09:15.659Z,1.85
2023-01-13T05:12:02.559Z,1.90
2023-01-13T05:14:47.768Z,1.73
2023-01-13T05:17:21.215Z,2.00
2023-01-13T05:19:49.277Z,1.88
2023-01-13T05:22:34.697Z,2.03
2023-01-13T05:25:20.588Z,1.85
2023-01-13T05:27:53.469Z,1.88
2023-01-13T05:30:23.051Z,2.10
2023-01-13T05:32:51.488Z,2.00
2023-01-13T05:35:19.887Z,2.40
2023-01-13T05:37:48.720Z,2.20
2023-01-13T05:40:37.139Z,2.10
2023-01-13T05:43:22.444Z,2.08
2023-01-13T05:45:52.653Z,1.80
2023-01-13T05:48:22.528Z,1.52
2023-01-13T05:50:51.102Z,2.10
2023-01-13T05:53:19.715Z,1.60
2023-01-13T05:55:47.978Z,1.52
2023-01-13T05:58:19.155Z,1.90
2023-01-13T06:00:50.949Z,1.83
2023-01-13T06:03:20.915Z,1.52
2023-01-13T06:05:50.384Z,1.65
2023-01-13T06:08:19.113Z,1.75
2023-01-13T06:10:47.322Z,1.42
2023-01-13T06:13:15.324Z,1.50
2023-01-13T06:15:47.737Z,1.75
2023-01-13T06:18:15.875Z,1.77
2023-01-13T06:20:44.037Z,1.75
2023-01-13T06:23:13.138Z,1.80
2023-01-13T06:25:48.671Z,1.80
2023-01-13T06:28:16.888Z,1.80
2023-01-13T06:30:49.063Z,1.70
2023-01-13T06:33:21.763Z,1.75
2023-01-13T06:35:54.515Z,1.42
2023-01-13T06:38:25.103Z,2.05
2023-01-13T06:40:53.260Z,1.60
2023-01-13T06:43:20.494Z,2.47
2023-01-13T06:45:53.376Z,1.70
2023-01-13T06:48:24.542Z,1.98
2023-01-13T06:50:52.769Z,1.90
2023-01-13T06:53:20.843Z,1.73
2023-01-13T06:55:48.812Z,2.00
2023-01-13T06:58:16.864Z,2.28
2023-01-13T07:00:44.928Z,2.17
2023-01-13T07:03:16.151Z,1.70
2023-01-13T07:05:51.839Z,1.67
2023-01-13T07:08:19.886Z,1.77
2023-01-13T07:10:47.868Z,1.60
2023-01-13T07:13:36.061Z,1.90
2023-01-13T07:16:06.247Z,2.10
2023-01-13T07:18:36.517Z,1.55
2023-01-13T07:21:06.501Z,1.65
2023-01-13T07:23:36.328Z,1.75
2023-01-13T07:26:05.015Z,1.67
2023-01-13T07:28:35.937Z,1.90
2023-01-13T07:31:04.334Z,1.52
2023-01-13T07:33:33.321Z,1.85
2023-01-13T07:36:04.846Z,1.65
2023-01-13T07:38:34.395Z,1.80
2023-01-13T07:41:24.009Z,2.05
2023-01-13T07:43:51.933Z,1.90
2023-01-13T07:46:22.622Z,1.52
2023-01-13T07:48:50.600Z,1.83
2023-01-13T07:51:19.889Z,1.52
2023-01-13T07:53:47.924Z,1.90
2023-01-13T07:56:15.967Z,1.83
2023-01-13T07:58:44.946Z,2.30
2023-01-13T08:01:16.782Z,1.90
2023-01-13T08:03:45.366Z,2.05
2023-01-13T08:06:13.736Z,1.83
2023-01-13T08:08:45.378Z,1.85
2023-01-13T08:11:13.391Z,1.50
2023-01-13T08:13:41.380Z,1.80
2023-01-13T08:16:11.059Z,2.03
2023-01-13T08:18:39.829Z,2.45
2023-01-13T08:21:10.042Z,1.70
2023-01-13T08:23:38.200Z,2.05
2023-01-13T08:26:09.922Z,2.53
2023-01-13T08:28:40.419Z,1.75
2023-01-13T08:31:13.684Z,2.20
2023-01-13T08:33:42.302Z,1.95
2023-01-13T08:36:12.671Z,2.20
2023-01-13T08:38:41.835Z,2.25
2023-01-13T08:41:12.648Z,1.90
2023-01-13T08:43:40.587Z,1.80
2023-01-13T08:46:08.790Z,1.90
2023-01-13T08:48:36.879Z,2.33
2023-01-13T08:51:07.021Z,2.08
2023-01-13T08:53:37.527Z,2.33
2023-01-13T08:56:08.545Z,1.95
2023-01-13T08:58:38.073Z,2.03
2023-01-13T09:01:06.779Z,2.20
2023-01-13T09:03:34.848Z,2.20
2023-01-13T09:06:02.894Z,1.98
2023-01-13T09:08:30.928Z,2.10
2023-01-13T09:10:59.007Z,2.03
2023-01-13T09:13:26.218Z,2.17
2023-01-13T09:15:57.015Z,2.05
2023-01-13T09:18:25.471Z,1.85
2023-01-13T09:20:53.633Z,2.22
2023-01-13T09:23:21.568Z,2.00
2023-01-13T09:25:50.233Z,2.10
2023-01-13T09:28:18.239Z,2.22
2023-01-13T09:30:46.574Z,2.00
2023-01-13T09:33:33.553Z,1.98
2023-01-13T09:36:01.855Z,2.00
2023-01-13T09:38:29.863Z,2.65
2023-01-13T09:40:57.853Z,1.80
2023-01-13T09:43:50.590Z,2.25
2023-01-13T09:46:41.816Z,2.92
2023-01-13T09:49:20.429Z,1.77
2023-01-13T09:51:54.738Z,2.40
2023-01-13T09:54:32.542Z,1.80
2023-01-13T09:57:01.200Z,2.00
2023-01-13T09:59:36.476Z,2.25
2023-01-13T10:02:18.125Z,2.20
2023-01-13T10:05:04.103Z,2.13
2023-01-13T10:07:35.675Z,2.25
2023-01-13T10:10:09.194Z,2.42
2023-01-13T10:12:55.192Z,2.33
2023-01-13T10:15:26.946Z,2.20
2023-01-13T10:18:03.603Z,2.30
2023-01-13T10:20:42.306Z,2.30
2023-01-13T10:23:23.646Z,2.20
2023-01-13T10:26:05.030Z,2.45
2023-01-13T10:28:33.174Z,2.05
2023-01-13T10:31:01.734Z,2.42
2023-01-13T10:33:29.766Z,2.50
2023-01-13T10:36:01.352Z,2.00
2023-01-13T10:38:32.000Z,2.55
2023-01-13T10:41:02.473Z,2.17
2023-01-13T10:43:31.735Z,2.33
2023-01-13T10:46:04.317Z,2.30
2023-01-13T10:48:41.357Z,2.33
2023-01-13T10:51:23.999Z,2.13
2023-01-13T10:53:55.204Z,2.60
2023-01-13T10:56:27.866Z,1.88
2023-01-13T10:59:11.055Z,2.33
2023-01-13T11:01:44.132Z,2.40
2023-01-13T11:04:29.603Z,2.25
2023-01-13T11:07:02.331Z,2.03
2023-01-13T11:09:31.984Z,2.28
2023-01-13T11:12:00.594Z,2.05
2023-01-13T11:14:39.400Z,2.50
2023-01-13T11:17:32.050Z,2.45
2023-01-13T11:20:06.903Z,2.17
2023-01-13T11:22:40.817Z,2.03
2023-01-13T11:25:15.488Z,2.40
2023-01-13T11:27:48.880Z,2.10
2023-01-13T11:30:29.646Z,2.10
2023-01-13T11:33:09.148Z,2.60
2023-01-13T11:35:42.283Z,2.10
2023-01-13T11:38:21.197Z,2.30
2023-01-13T11:40:51.831Z,2.35
2023-01-13T11:43:30.206Z,2.25
2023-01-13T11:46:01.043Z,2.53
2023-01-13T11:48:31.324Z,2.60
2023-01-13T11:51:05.956Z,1.98
2023-01-13T11:53:54.944Z,2.35
2023-01-13T11:56:40.353Z,2.13
2023-01-13T11:59:46.074Z,2.50
2023-01-13T12:02:33.125Z,2.83
2023-01-13T12:05:10.093Z,2.25
2023-01-13T12:07:50.669Z,2.78
2023-01-13T12:10:37.591Z,2.08
2023-01-13T12:13:19.305Z,1.95
2023-01-13T12:16:14.881Z,2.35
2023-01-13T12:19:14.882Z,1.80
2023-01-13T12:22:18.290Z,1.85
2023-01-13T12:24:52.070Z,2.30
2023-01-13T12:27:35.334Z,2.00
2023-01-13T12:30:14.864Z,1.98
2023-01-13T12:32:43.611Z,2.38
2023-01-13T12:35:31.674Z,2.30
2023-01-13T12:38:09.301Z,1.98
2023-01-13T12:40:48.750Z,2.10
2023-01-13T12:43:38.203Z,2.58
2023-01-13T12:46:53.432Z,2.20
2023-01-13T12:49:27.980Z,2.40
2023-01-13T12:52:14.876Z,2.13
2023-01-13T12:55:18.980Z,2.30
2023-01-13T12:58:03.927Z,2.13
2023-01-13T13:00:53.983Z,2.17
2023-01-13T13:03:31.437Z,2.53
2023-01-13T13:06:04.766Z,2.15
2023-01-13T13:08:52.297Z,2.70
2023-01-13T13:11:54.418Z,2.00
2023-01-13T13:15:03.715Z,2.25
2023-01-13T13:18:01.094Z,2.38
2023-01-13T13:20:56.117Z,1.98
2023-01-13T13:24:03.065Z,2.05
2023-01-13T13:26:45.794Z,1.88
2023-01-13T13:29:38.008Z,2.20
2023-01-13T13:32:41.877Z,1.90
2023-01-13T13:35:29.099Z,2.15
2023-01-13T13:38:29.051Z,2.00
2023-01-13T13:41:14.115Z,2.40
2023-01-13T13:44:01.465Z,2.13
2023-01-13T13:46:49.571Z,2.25
2023-01-13T13:49:19.105Z,1.92
2023-01-13T13:52:00.690Z,2.13
2023-01-13T13:54:29.308Z,2.28
2023-01-13T13:56:58.536Z,2.25
2023-01-13T13:59:30.523Z,1.95
2023-01-13T14:02:03.695Z,1.90
2023-01-13T14:04:41.685Z,2.38
2023-01-13T14:07:20.675Z,2.10
2023-01-13T14:09:52.669Z,2.13
2023-01-13T14:12:22.392Z,2.10
2023-01-13T14:14:51.402Z,2.25
2023-01-13T14:17:26.448Z,2.00
2023-01-13T14:19:57.901Z,2.20
2023-01-13T14:22:27.286Z,2.15
2023-01-13T14:24:57.814Z,1.85
2023-01-13T14:27:28.411Z,2.17
2023-01-13T14:29:59.327Z,1.80
2023-01-13T14:32:33.517Z,2.10
2023-01-13T14:35:01.588Z,2.15
2023-01-13T14:37:36.681Z,2.10
2023-01-13T14:40:05.497Z,2.20
2023-01-13T14:42:35.461Z,2.35
2023-01-13T14:45:03.864Z,1.90
2023-01-13T14:47:34.005Z,2.70
2023-01-13T14:50:05.074Z,2.45
2023-01-13T14:52:36.568Z,1.88
2023-01-13T14:55:28.034Z,2.00
2023-01-13T14:58:25.805Z,2.15
2023-01-13T15:01:30.504Z,2.17
2023-01-13T15:04:25.755Z,2.20
2023-01-13T15:06:57.675Z,1.98
2023-01-13T15:09:29.955Z,2.08
2023-01-13T15:11:58.889Z,2.13
2023-01-13T15:14:33.734Z,1.85
2023-01-13T15:17:02.944Z,2.10
2023-01-13T15:19:30.891Z,2.13
2023-01-13T15:21:58.919Z,2.17
2023-01-13T15:24:28.214Z,2.28
2023-01-13T15:26:56.170Z,2.00
2023-01-13T15:29:24.458Z,2.20
2023-01-13T15:31:52.787Z,2.03
2023-01-13T15:34:20.766Z,2.08
2023-01-13T15:36:51.791Z,1.83
2023-01-13T15:39:22.801Z,2.17
2023-01-13T15:42:09.807Z,2.17
2023-01-13T15:44:55.036Z,1.80
2023-01-13T15:47:28.298Z,1.83
2023-01-13T15:49:56.357Z,2.03
2023-01-13T15:52:26.042Z,2.13
2023-01-13T15:54:55.355Z,2.10
2023-01-13T15:57:26.763Z,1.80
2023-01-13T15:59:57.679Z,2.17
2023-01-13T16:02:26.198Z,1.80
2023-01-13T16:04:54.867Z,2.22
2023-01-13T16:07:24.976Z,2.08
2023-01-13T16:09:53.849Z,2.10
2023-01-13T16:12:21.906Z,2.28
2023-01-13T16:14:51.314Z,2.22
2023-01-13T16:17:21.567Z,2.05
2023-01-13T16:19:50.003Z,1.95
2023-01-13T16:22:18.847Z,2.15
2023-01-13T16:24:47.028Z,2.10
2023-01-13T16:27:16.943Z,2.40
2023-01-13T16:29:45.125Z,1.90
2023-01-13T16:32:15.144Z,2.30
2023-01-13T16:34:43.554Z,2.05
2023-01-13T16:37:20.651Z,2.40
2023-01-13T16:39:49.923Z,2.30
2023-01-13T16:42:20.942Z,2.15
2023-01-13T16:44:49.754Z,2.45
2023-01-13T16:47:19.880Z,2.08
2023-01-13T16:49:48.173Z,2.30
2023-01-13T16:52:16.512Z,2.92
2023-01-13T16:54:44.544Z,2.15
2023-01-13T16:57:14.288Z,1.85
2023-01-13T16:59:42.330Z,1.98
2023-01-13T17:02:14.673Z,2.15
2023-01-13T17:04:44.079Z,2.17
2023-01-13T17:07:17.685Z,2.10
2023-01-13T17:09:45.704Z,2.30
2023-01-13T17:12:16.786Z,2.15
2023-01-13T17:14:44.877Z,2.38
2023-01-13T17:17:23.091Z,2.50
2023-01-13T17:19:55.219Z,2.03
2023-01-13T17:22:23.683Z,2.05
2023-01-13T17:24:55.752Z,2.42
2023-01-13T17:27:24.165Z,2.45
2023-01-13T17:29:52.119Z,2.80
2023-01-13T17:32:21.524Z,1.85
2023-01-13T17:34:49.949Z,2.28
2023-01-13T17:37:19.396Z,2.13
2023-01-13T17:39:48.603Z,2.20
2023-01-13T17:42:19.024Z,2.30
2023-01-13T17:44:48.072Z,2.50
2023-01-13T17:47:16.116Z,2.03
2023-01-13T17:49:44.078Z,2.00
2023-01-13T17:52:12.027Z,2.10
2023-01-13T17:54:43.166Z,2.20
2023-01-13T17:57:11.465Z,1.85
2023-01-13T17:59:42.611Z,1.90
2023-01-13T18:02:12.951Z,1.98
2023-01-13T18:04:43.403Z,1.80
2023-01-13T18:07:11.389Z,1.70
2023-01-13T18:09:39.346Z,1.70
2023-01-13T18:12:08.854Z,1.73
2023-01-13T18:14:36.852Z,1.83
2023-01-13T18:17:04.970Z,2.10
2023-01-13T18:19:50.438Z,2.22
2023-01-13T18:22:35.581Z,2.08
2023-01-13T18:25:22.067Z,1.67
2023-01-13T18:27:51.551Z,1.90
2023-01-13T18:30:20.458Z,2.30
2023-01-13T18:32:48.478Z,1.77
2023-01-13T18:35:16.765Z,2.03
2023-01-13T18:37:44.760Z,1.83
2023-01-13T18:40:14.418Z,1.27
2023-01-13T18:42:59.144Z,1.98
2023-01-13T18:45:30.319Z,1.40
2023-01-13T18:48:00.322Z,1.50
2023-01-13T18:50:29.229Z,1.67
2023-01-13T18:52:57.257Z,1.60
2023-01-13T18:55:25.604Z,1.35
2023-01-13T18:57:54.017Z,1.23
2023-01-13T19:00:24.693Z,1.63
2023-01-13T19:05:34.698Z,1.73
2023-01-13T19:08:02.987Z,1.63
2023-01-13T19:10:32.541Z,1.88
2023-01-13T19:13:01.245Z,1.60
2023-01-13T19:15:29.542Z,1.63
2023-01-13T19:17:58.992Z,1.88
2023-01-13T19:20:27.091Z,1.67
2023-01-13T19:22:55.268Z,2.00
2023-01-13T19:25:23.642Z,1.38
2023-01-13T19:27:51.739Z,1.05
2023-01-13T19:30:20.265Z,1.63
2023-01-13T19:32:48.672Z,1.48
2023-01-13T19:35:18.286Z,1.10
2023-01-13T19:37:46.356Z,1.20
2023-01-13T19:40:14.747Z,1.20
2023-01-13T19:43:01.606Z,1.10
2023-01-13T19:45:32.138Z,1.80
2023-01-13T19:48:02.349Z,1.25
2023-01-13T19:50:31.981Z,1.00
2023-01-13T19:52:59.971Z,1.23
2023-01-13T19:55:28.118Z,1.15
2023-01-13T19:57:56.131Z,1.30
2023-01-13T20:00:24.137Z,1.27
2023-01-13T20:02:53.354Z,0.98
2023-01-13T20:05:25.724Z,1.20
2023-01-13T20:07:55.114Z,1.02
2023-01-13T20:10:24.623Z,1.23
2023-01-13T20:12:52.896Z,1.20
2023-01-13T20:15:20.850Z,0.93
2023-01-13T20:17:49.106Z,1.10
2023-01-13T20:20:18.606Z,1.10
2023-01-13T20:22:46.901Z,1.23
2023-01-13T20:25:17.557Z,1.50
2023-01-13T20:27:46.447Z,1.02
2023-01-13T20:30:14.914Z,1.45
2023-01-13T20:32:44.792Z,1.20
2023-01-13T20:35:13.049Z,1.10
2023-01-13T20:37:42.741Z,1.40
2023-01-13T20:40:14.868Z,1.35
2023-01-13T20:42:45.736Z,1.65
2023-01-13T20:45:17.603Z,1.25
2023-01-13T20:47:46.596Z,1.30
2023-01-13T20:50:15.103Z,1.10
2023-01-13T20:52:46.099Z,1.23
2023-01-13T20:55:15.041Z,1.50
2023-01-13T20:57:48.448Z,1.48
2023-01-13T21:00:17.433Z,1.20
2023-01-13T21:02:45.388Z,1.15
2023-01-13T21:05:16.210Z,1.30
2023-01-13T21:07:44.258Z,1.30
2023-01-13T21:10:12.535Z,1.20
2023-01-13T21:12:58.051Z,1.42
2023-01-13T21:15:27.862Z,1.40
2023-01-13T21:18:13.450Z,1.40
2023-01-13T21:20:41.728Z,1.23
2023-01-13T21:23:10.899Z,1.50
2023-01-13T21:25:40.170Z,1.23
2023-01-13T21:28:11.338Z,1.20
2023-01-13T21:30:41.021Z,1.15
2023-01-13T21:33:09.258Z,1.20
2023-01-13T21:35:39.933Z,1.15
2023-01-13T21:38:08.203Z,1.30
2023-01-13T21:40:36.226Z,1.30
2023-01-13T21:43:23.543Z,1.58
2023-01-13T21:46:10.514Z,1.60
2023-01-13T21:48:38.810Z,1.48
2023-01-13T21:51:06.990Z,1.50
2023-01-13T21:53:37.293Z,1.80
2023-01-13T21:56:05.823Z,1.92
2023-01-13T21:58:33.827Z,1.45
2023-01-13T22:01:03.942Z,1.27
2023-01-13T22:03:53.654Z,1.70
2023-01-13T22:06:21.702Z,1.60
2023-01-13T22:08:49.798Z,1.45
2023-01-13T22:11:20.486Z,2.13
2023-01-13T22:14:07.171Z,2.22
2023-01-13T22:16:39.423Z,1.88
2023-01-13T22:19:08.607Z,1.75
2023-01-13T22:21:37.257Z,1.77
2023-01-13T22:24:05.704Z,1.90
2023-01-13T22:26:33.703Z,1.92
2023-01-13T22:29:02.300Z,1.73
2023-01-13T22:31:31.618Z,2.05
2023-01-13T22:34:01.020Z,1.77
2023-01-13T22:36:29.033Z,1.65
2023-01-13T22:39:00.605Z,1.70
2023-01-13T22:41:28.830Z,1.90
2023-01-13T22:43:59.816Z,1.92
2023-01-13T22:46:27.839Z,2.03
2023-01-13T22:48:56.084Z,1.98
2023-01-13T22:51:30.623Z,2.03
2023-01-13T22:53:58.754Z,2.00
2023-01-13T22:56:27.930Z,1.85
2023-01-13T22:58:56.725Z,1.88
2023-01-13T23:01:25.966Z,2.00
2023-01-13T23:03:57.393Z,2.10
2023-01-13T23:06:29.160Z,1.75
2023-01-13T23:08:57.858Z,2.35
2023-01-13T23:11:27.891Z,2.00
2023-01-13T23:13:59.524Z,2.40
2023-01-13T23:16:28.318Z,1.90
2023-01-13T23:18:56.453Z,1.88
2023-01-13T23:21:26.377Z,1.63
2023-01-13T23:23:58.374Z,1.92
2023-01-13T23:29:03.689Z,1.77
2023-01-13T23:31:31.804Z,2.17
2023-01-13T23:34:00.717Z,1.77
2023-01-13T23:36:30.140Z,1.67
2023-01-13T23:39:00.830Z,2.10
2023-01-13T23:41:29.352Z,1.73
2023-01-13T23:43:59.120Z,1.83
2023-01-13T23:46:28.410Z,2.00
2023-01-13T23:48:56.503Z,1.73
2023-01-13T23:51:26.158Z,1.75
2023-01-13T23:53:56.781Z,1.70
2023-01-13T23:56:30.216Z,1.90
2023-01-13T23:58:58.688Z,1.70
